Time;durP1;ratioP1;P1;durP2;ratioP2;P2;SDS_P1;SDS_P2;PMS_P1;PMS_P2;Temp;Humidity;BMP_temperature;BMP_pressure;BME280_temperature;BME280_humidity;BME280_pressure;Samples;Min_cycle;Max_cycle;Signal;HPM_P1;HPM_P2
2021/06/06 03:31:18;;;;;;;15.00;13.03;;;;;;;20.88;66.27;99177.34;7979142;23;20292;-84
2021/06/06 03:34:39;;;;;;;17.60;12.87;;;;;;;20.84;66.31;99190.75;6854613;28;20550;-82
2021/06/06 03:38:01;;;;;;;13.87;12.27;;;;;;;20.96;65.83;99185.97;6864218;28;20570;-82
2021/06/06 03:41:23;;;;;;;17.23;13.83;;;;;;;20.98;65.59;99197.47;6863904;28;20632;-83
2021/06/06 03:44:44;;;;;;;16.60;13.20;;;;;;;20.71;65.68;99176.66;6888830;23;20221;-82
2021/06/06 03:48:07;;;;;;;16.97;12.87;;;;;;;20.52;66.35;99162.50;6865279;28;20212;-83
2021/06/06 03:51:29;;;;;;;17.37;12.83;;;;;;;20.87;65.99;99186.69;6871584;28;20216;-82
2021/06/06 03:54:53;;;;;;;18.07;12.90;;;;;;;20.50;66.59;99196.72;6872650;28;20245;-83
2021/06/06 03:58:14;;;;;;;20.03;12.33;;;;;;;20.42;66.19;99195.31;6873483;28;20205;-82
2021/06/06 04:01:35;;;;;;;17.63;13.57;;;;;;;20.39;67.04;99200.47;6873243;28;20213;-82
2021/06/06 04:04:58;;;;;;;20.80;14.20;;;;;;;20.42;66.63;99199.94;6872455;28;20224;-82
2021/06/06 04:08:20;;;;;;;21.37;14.37;;;;;;;20.64;66.37;99197.97;6871482;28;20208;-82
2021/06/06 04:11:41;;;;;;;17.50;13.20;;;;;;;20.65;65.73;99197.72;6871090;28;20220;-82
2021/06/06 04:15:03;;;;;;;13.03;10.17;;;;;;;20.31;65.96;99192.72;6871322;28;20233;-83
2021/06/06 04:18:26;;;;;;;14.67;10.23;;;;;;;20.17;66.39;99196.94;6871266;28;20205;-82
2021/06/06 04:21:49;;;;;;;16.33;10.13;;;;;;;20.44;66.29;99198.59;6870992;28;20220;-82
2021/06/06 04:25:12;;;;;;;13.30;9.97;;;;;;;20.52;65.80;99181.69;6870520;28;20229;-82
2021/06/06 04:28:33;;;;;;;16.53;10.20;;;;;;;20.53;65.48;99188.00;6844448;29;20678;-82
2021/06/06 04:31:54;;;;;;;12.73;9.23;;;;;;;20.43;65.65;99186.00;6848601;28;20209;-82
2021/06/06 04:35:16;;;;;;;11.53;8.43;;;;;;;20.22;65.29;99172.38;6870386;28;20276;-82
2021/06/06 04:38:39;;;;;;;13.77;8.67;;;;;;;20.46;65.37;99179.19;6869982;28;20224;-82
2021/06/06 04:42:00;;;;;;;11.67;8.63;;;;;;;20.05;66.21;99172.41;6869561;28;20206;-82
2021/06/06 04:45:21;;;;;;;12.30;7.97;;;;;;;20.06;66.40;99171.38;6870041;28;20253;-82
2021/06/06 04:48:44;;;;;;;10.87;7.93;;;;;;;20.26;66.16;99187.16;6870306;28;20205;-82
2021/06/06 04:52:06;;;;;;;9.67;7.30;;;;;;;20.44;65.14;99171.22;6868947;28;20216;-83
2021/06/06 04:55:29;;;;;;;9.93;7.30;;;;;;;20.44;64.89;99157.53;6869114;28;20240;-82
2021/06/06 04:58:50;;;;;;;8.77;7.40;;;;;;;20.63;64.74;99185.38;6869941;28;20205;-81
2021/06/06 05:02:12;;;;;;;8.30;6.93;;;;;;;20.69;64.78;99187.06;6868338;28;20205;-83
2021/06/06 05:05:33;;;;;;;9.23;7.33;;;;;;;20.63;64.36;99171.66;6862819;28;20226;-82
2021/06/06 05:08:54;;;;;;;9.07;6.77;;;;;;;20.56;64.66;99187.47;6844156;28;20219;-82
2021/06/06 05:12:17;;;;;;;9.30;7.03;;;;;;;20.58;64.94;99188.88;6844198;29;20214;-83
2021/06/06 05:15:38;;;;;;;10.27;7.00;;;;;;;20.59;64.62;99171.38;6842536;29;20222;-83
2021/06/06 05:18:59;;;;;;;8.23;6.87;;;;;;;20.46;65.23;99187.41;6863800;28;20648;-82
2021/06/06 05:22:21;;;;;;;8.77;6.83;;;;;;;20.75;64.67;99189.56;6865177;28;20236;-84
2021/06/06 05:25:42;;;;;;;8.03;6.50;;;;;;;20.55;64.79;99172.13;6869244;28;20595;-83
2021/06/06 05:29:06;;;;;;;9.13;7.33;;;;;;;20.48;64.88;99180.56;6869147;28;20236;-81
2021/06/06 05:32:27;;;;;;;7.53;6.43;;;;;;;20.16;65.09;99129.59;6868558;28;20209;-83
2021/06/06 05:35:49;;;;;;;9.67;7.83;;;;;;;20.20;65.51;99197.25;6861039;28;20225;-82
2021/06/06 05:39:10;;;;;;;8.10;7.10;;;;;;;20.24;65.59;99143.63;6843416;29;20217;-82
2021/06/06 05:42:31;;;;;;;10.97;8.07;;;;;;;20.50;64.97;99194.84;6842039;29;20251;-83
2021/06/06 05:45:54;;;;;;;12.17;8.30;;;;;;;20.28;65.46;99179.56;6842093;29;20244;-79
2021/06/06 05:49:15;;;;;;;10.53;8.17;;;;;;;20.41;65.44;99187.34;6844828;28;20225;-82
2021/06/06 05:52:36;;;;;;;10.80;7.60;;;;;;;20.38;65.19;99198.81;6859594;28;20216;-81
2021/06/06 05:55:57;;;;;;;14.53;9.53;;;;;;;20.46;65.87;99204.66;6867816;28;20225;-82
2021/06/06 05:59:18;;;;;;;13.03;9.27;;;;;;;20.59;65.16;99197.94;6847341;28;20203;-81
2021/06/06 06:02:41;;;;;;;11.70;9.37;;;;;;;20.27;66.36;99197.88;6844533;28;20252;-82
2021/06/06 06:06:02;;;;;;;18.93;10.97;;;;;;;20.22;66.02;99177.84;6855576;28;20226;-83
2021/06/06 06:09:23;;;;;;;12.23;9.43;;;;;;;20.07;67.40;99205.88;6866019;28;20208;-82
2021/06/06 06:12:45;;;;;;;17.27;10.07;;;;;;;20.04;67.27;99173.50;6841652;28;20465;-82
2021/06/06 06:16:08;;;;;;;13.00;9.27;;;;;;;20.08;67.26;99206.69;6838905;29;20233;-83
2021/06/06 06:19:30;;;;;;;15.30;11.10;;;;;;;20.06;67.12;99193.28;6840195;29;20198;-83
2021/06/06 06:22:51;;;;;;;16.77;11.60;;;;;;;20.44;67.00;99208.72;6840344;29;20214;-81
2021/06/06 06:26:13;;;;;;;16.30;10.27;;;;;;;20.37;66.70;99198.00;6847904;28;20214;-82
2021/06/06 06:29:34;;;;;;;15.20;10.93;;;;;;;20.59;65.86;99197.94;6867747;28;20205;-83
2021/06/06 06:32:55;;;;;;;16.10;11.43;;;;;;;20.46;66.87;99212.06;6867367;28;20240;-83
2021/06/06 06:36:19;;;;;;;14.73;10.87;;;;;;;20.47;66.12;99210.97;6873973;28;20228;-83
2021/06/06 06:39:40;;;;;;;15.17;11.03;;;;;;;20.37;66.71;99208.09;6869168;28;20688;-85
2021/06/06 06:43:02;;;;;;;18.00;12.77;;;;;;;20.45;66.96;99213.16;6869885;28;20518;-82
2021/06/06 06:46:24;;;;;;;16.97;10.77;;;;;;;20.17;66.77;99186.00;6868360;28;20242;-82
2021/06/06 06:49:46;;;;;;;19.70;12.17;;;;;;;20.57;66.59;99211.06;6869675;28;20209;-83
2021/06/06 06:53:09;;;;;;;15.23;11.30;;;;;;;20.24;66.86;99214.84;6849467;28;20234;-82
2021/06/06 06:56:31;;;;;;;16.77;11.80;;;;;;;20.51;67.30;99214.84;6855606;28;20221;-82
2021/06/06 06:59:52;;;;;;;15.97;12.03;;;;;;;20.30;66.93;99193.81;6864639;28;20335;-83
2021/06/06 07:03:15;;;;;;;14.43;11.03;;;;;;;20.69;66.71;99206.25;6840110;29;20217;-82
2021/06/06 07:06:37;;;;;;;17.87;12.40;;;;;;;20.32;67.36;99186.13;6847316;28;20280;-83
2021/06/06 07:10:00;;;;;;;16.80;11.63;;;;;;;20.49;67.27;99217.00;6869129;28;20213;-82
2021/06/06 07:13:22;;;;;;;17.07;11.73;;;;;;;20.31;68.00;99217.34;6869358;28;20229;-82
2021/06/06 07:16:43;;;;;;;18.83;11.80;;;;;;;20.37;67.99;99219.06;6869188;28;20701;-81
2021/06/06 07:20:07;;;;;;;19.53;11.87;;;;;;;20.67;67.09;99209.25;6869848;28;20216;-82
2021/06/06 07:23:30;;;;;;;20.00;12.63;;;;;;;20.54;67.38;99206.09;6869817;28;20670;-83
2021/06/06 07:26:52;;;;;;;17.73;12.50;;;;;;;20.52;67.18;99206.34;6875206;28;20225;-81
2021/06/06 07:30:17;;;;;;;16.93;11.60;;;;;;;20.75;67.20;99216.97;6874612;28;20252;-82
2021/06/06 07:33:42;;;;;;;15.70;11.67;;;;;;;20.67;67.60;99213.88;6874316;28;20287;-82
2021/06/06 07:37:05;;;;;;;18.23;12.37;;;;;;;20.38;68.43;99220.72;6874344;28;20264;-83
2021/06/06 07:40:29;;;;;;;18.33;11.80;;;;;;;20.59;67.50;99226.16;6874027;28;20205;-81
2021/06/06 07:43:51;;;;;;;18.37;12.03;;;;;;;20.67;67.08;99216.63;6872645;28;20217;-83
2021/06/06 07:47:12;;;;;;;15.63;11.47;;;;;;;20.72;66.74;99197.50;6872940;28;20232;-82
2021/06/06 07:50:36;;;;;;;15.17;11.27;;;;;;;20.51;66.55;99198.41;6871965;28;20213;-82
2021/06/06 07:53:58;;;;;;;14.57;10.97;;;;;;;20.35;67.72;99202.88;6872260;28;20704;-83
2021/06/06 07:57:19;;;;;;;16.50;11.80;;;;;;;20.68;66.89;99219.13;6872656;28;20201;-82
2021/06/06 08:00:43;;;;;;;15.03;11.37;;;;;;;20.77;66.51;99214.81;6872497;28;20208;-83
2021/06/06 08:04:04;;;;;;;14.60;11.23;;;;;;;20.67;66.78;99222.09;6872330;28;20729;-83
2021/06/06 08:07:28;;;;;;;16.77;12.73;;;;;;;20.51;67.21;99185.53;6873669;28;20213;-81
2021/06/06 08:10:51;;;;;;;19.13;13.03;;;;;;;20.59;67.22;99201.50;6872042;28;20264;-83
2021/06/06 08:14:12;;;;;;;17.63;13.37;;;;;;;20.75;67.04;99199.72;6872242;28;20238;-83
2021/06/06 08:17:35;;;;;;;19.63;12.63;;;;;;;20.62;67.56;99206.47;6872457;28;20213;-82
2021/06/06 08:20:59;;;;;;;21.80;15.10;;;;;;;20.73;67.14;99210.09;6872410;28;20205;-81
2021/06/06 08:24:20;;;;;;;23.67;14.90;;;;;;;20.67;67.05;99191.97;6872415;28;20225;-83
2021/06/06 08:27:42;;;;;;;27.30;15.67;;;;;;;20.77;67.42;99217.56;6873185;28;20210;-83
2021/06/06 08:31:05;;;;;;;22.37;15.43;;;;;;;20.67;66.86;99178.25;6871665;28;20209;-83
2021/06/06 08:34:29;;;;;;;25.20;15.57;;;;;;;20.70;67.10;99192.28;6871905;28;20224;-83
2021/06/06 08:37:50;;;;;;;27.13;16.03;;;;;;;21.07;66.34;99208.78;6871254;28;20213;-83
2021/06/06 08:41:17;;;;;;;37.30;19.47;;;;;;;20.36;67.48;99174.44;6871223;28;20484;-83
2021/06/06 08:44:39;;;;;;;32.53;18.77;;;;;;;20.69;68.22;99219.97;6871418;28;20239;-81
2021/06/06 08:48:05;;;;;;;31.43;17.97;;;;;;;20.94;67.17;99209.25;6871469;28;20212;-82
2021/06/06 08:51:36;;;;;;;31.63;19.20;;;;;;;20.78;67.43;99227.44;6870762;28;20658;-83
2021/06/06 08:55:01;;;;;;;27.53;17.33;;;;;;;20.58;67.91;99212.72;6871769;28;20236;-82
2021/06/06 08:58:33;;;;;;;36.33;19.30;;;;;;;20.32;68.55;99219.84;6871066;28;20674;-83
2021/06/06 09:01:57;;;;;;;30.40;17.50;;;;;;;20.55;68.46;99218.69;6870399;28;20212;-83
2021/06/06 09:05:24;;;;;;;27.23;17.63;;;;;;;20.67;68.20;99212.00;6870780;28;20361;-82
2021/06/06 09:08:47;;;;;;;33.70;19.17;;;;;;;21.02;67.40;99212.31;6871319;28;20209;-83
2021/06/06 09:12:11;;;;;;;23.37;17.23;;;;;;;20.94;67.46;99210.03;6870015;28;20220;-83
2021/06/06 09:15:32;;;;;;;32.10;19.30;;;;;;;20.77;66.94;99203.88;6870340;28;20240;-83
2021/06/06 09:19:06;;;;;;;28.47;19.03;;;;;;;21.01;67.05;99216.16;6870939;28;20268;-83
2021/06/06 09:22:34;;;;;;;39.73;21.10;;;;;;;20.92;67.70;99208.69;6870228;28;20213;-83
2021/06/06 09:26:04;;;;;;;35.07;20.57;;;;;;;20.89;67.65;99211.94;6870420;28;20228;-83
2021/06/06 09:29:25;;;;;;;37.43;20.57;;;;;;;21.05;67.05;99206.31;6870898;28;20265;-83
2021/06/06 09:32:46;;;;;;;36.90;21.97;;;;;;;21.05;67.14;99224.69;6868934;28;20209;-82
2021/06/06 09:36:17;;;;;;;44.33;23.53;;;;;;;20.93;67.74;99216.63;6869299;28;20268;-83
2021/06/06 09:39:41;;;;;;;39.07;23.63;;;;;;;21.40;67.00;99212.88;6869658;28;20205;-82
2021/06/06 09:43:04;;;;;;;40.80;25.13;;;;;;;21.22;66.92;99225.38;6869045;28;20708;-83
2021/06/06 09:46:32;;;;;;;39.30;24.03;;;;;;;20.67;66.82;99142.63;6883578;23;20246;-74
2021/06/06 09:50:05;;;;;;;37.90;23.00;;;;;;;20.72;67.39;99161.88;6864188;28;20210;-74
2021/06/06 09:53:30;;;;;;;51.30;26.77;;;;;;;20.81;68.31;99231.56;6849241;29;20225;-74
2021/06/06 09:56:59;;;;;;;47.47;26.57;;;;;;;21.22;67.49;99226.19;6845294;29;20613;-75
2021/06/06 10:00:29;;;;;;;42.07;25.43;;;;;;;21.31;67.04;99222.69;6844895;29;20210;-73
2021/06/06 10:03:53;;;;;;;44.77;25.90;;;;;;;21.19;66.31;99208.34;6848993;29;20652;-73
2021/06/06 10:07:16;;;;;;;37.57;24.57;;;;;;;20.84;66.41;99139.50;6847518;29;20209;-74
2021/06/06 10:10:41;;;;;;;38.23;24.60;;;;;;;21.13;66.54;99239.56;6845025;29;20206;-74
2021/06/06 10:14:03;;;;;;;44.73;24.63;;;;;;;21.19;67.48;99226.72;6847874;29;20237;-73
2021/06/06 10:17:33;;;;;;;36.97;25.10;;;;;;;20.92;67.53;99233.34;6848662;29;20549;-72
2021/06/06 10:20:58;;;;;;;42.33;26.40;;;;;;;21.04;67.36;99234.81;6848246;29;20216;-75
2021/06/06 10:24:29;;;;;;;41.00;28.43;;;;;;;20.83;66.99;99163.59;6846406;29;20288;-75
2021/06/06 10:27:53;;;;;;;34.13;25.70;;;;;;;21.35;65.24;99181.81;6844226;29;20212;-75
2021/06/06 10:31:19;;;;;;;36.50;26.13;;;;;;;21.32;65.84;99201.56;6846928;29;20656;-76
2021/06/06 10:34:45;;;;;;;36.83;26.93;;;;;;;21.41;65.72;99194.47;6848721;29;20218;-76
2021/06/06 10:38:09;;;;;;;48.40;32.30;;;;;;;21.02;65.54;99125.41;6838477;29;20209;-78
2021/06/06 10:41:34;;;;;;;36.53;26.80;;;;;;;21.33;65.86;99202.41;6849527;29;20224;-79
2021/06/06 10:45:04;;;;;;;41.80;30.73;;;;;;;20.93;66.18;99178.25;6848928;28;20267;-78
2021/06/06 10:48:28;;;;;;;36.80;27.47;;;;;;;20.51;66.93;99108.00;6848910;29;20240;-79
2021/06/06 10:51:53;;;;;;;59.37;33.13;;;;;;;21.22;66.98;99242.63;6848518;29;20269;-78
2021/06/06 10:55:21;;;;;;;52.43;32.37;;;;;;;20.80;67.99;99183.34;6845716;29;20217;-78
2021/06/06 10:58:56;;;;;;;51.83;32.67;;;;;;;20.44;67.33;99099.16;6845082;28;20196;-81
2021/06/06 11:02:28;;;;;;;47.30;31.77;;;;;;;20.62;66.50;99071.34;6855763;29;20206;-80
2021/06/06 11:05:59;;;;;;;56.20;36.20;;;;;;;21.01;66.87;99135.81;6849447;28;20234;-80
2021/06/06 11:09:25;;;;;;;48.00;34.60;;;;;;;20.98;67.18;99161.03;6856747;29;20217;-79
2021/06/06 11:12:48;;;;;;;53.90;39.70;;;;;;;21.42;66.52;99165.97;6856362;29;20213;-79
2021/06/06 11:16:24;;;;;;;57.17;41.07;;;;;;;21.28;66.47;99159.28;6856316;29;20205;-79
2021/06/06 11:19:45;;;;;;;52.17;36.50;;;;;;;21.33;65.67;99138.22;6856670;29;20296;-79
2021/06/06 11:23:13;;;;;;;52.73;35.90;;;;;;;21.40;66.54;99179.94;6857022;29;20210;-79
2021/06/06 11:26:41;;;;;;;50.93;34.67;;;;;;;21.74;66.14;99210.63;6856254;29;20292;-79
2021/06/06 11:30:35;;;;;;;51.00;34.97;;;;;;;21.19;66.45;99104.13;6855674;29;20214;-78
2021/06/06 11:33:59;;;;;;;52.13;35.07;;;;;;;21.17;66.21;99099.19;6856077;29;20274;-79
2021/06/06 11:37:43;;;;;;;58.47;38.53;;;;;;;21.93;66.02;99206.31;6855746;29;20210;-79
2021/06/06 11:41:11;;;;;;;65.73;42.70;;;;;;;21.60;66.10;99174.56;6856083;29;20191;-78
2021/06/06 11:44:41;;;;;;;59.20;37.80;;;;;;;21.29;66.09;99117.88;6855406;29;20701;-78
2021/06/06 11:48:08;;;;;;;67.30;39.87;;;;;;;21.83;65.62;99190.63;6854307;29;20206;-78
2021/06/06 11:51:38;;;;;;;71.03;43.40;;;;;;;21.19;67.20;99164.44;6853781;29;20220;-78
2021/06/06 11:55:01;;;;;;;67.27;42.53;;;;;;;21.71;66.55;99202.94;6853080;29;20252;-78
2021/06/06 11:58:25;;;;;;;56.67;38.70;;;;;;;21.00;66.65;99107.59;6851812;29;20201;-78
2021/06/06 12:01:58;;;;;;;61.53;39.60;;;;;;;20.53;67.14;99064.72;6851723;29;20217;-79
2021/06/06 12:05:23;;;;;;;81.37;45.17;;;;;;;21.00;66.88;99145.13;6851898;29;20199;-78
2021/06/06 12:08:46;;;;;;;76.43;45.17;;;;;;;20.42;67.77;99057.50;6850206;29;20206;-78
2021/06/06 12:12:11;;;;;;;68.33;42.07;;;;;;;21.13;66.57;99120.81;6838530;28;20210;-79
2021/06/06 12:15:35;;;;;;;70.10;42.17;;;;;;;21.52;66.71;99182.47;6838968;29;20226;-79
2021/06/06 12:19:05;;;;;;;65.00;40.97;;;;;;;21.43;66.97;99178.59;6839044;29;20276;-79
2021/06/06 12:22:32;;;;;;;72.30;43.60;;;;;;;20.91;67.59;99111.06;6838503;29;20209;-78
2021/06/06 12:25:56;;;;;;;72.63;44.83;;;;;;;20.83;67.55;99095.94;6847209;29;20194;-78
2021/06/06 12:29:26;;;;;;;61.37;40.57;;;;;;;21.00;67.39;99189.84;6836819;29;20728;-78
2021/06/06 12:32:51;;;;;;;70.67;43.70;;;;;;;20.57;66.75;99024.78;6852970;29;20715;-78
2021/06/06 12:36:15;;;;;;;57.60;41.07;;;;;;;20.74;67.64;99122.16;6850546;28;20703;-77
2021/06/06 12:39:40;;;;;;;60.07;40.30;;;;;;;20.54;67.07;99061.72;6827698;29;20214;-77
2021/06/06 12:43:02;;;;;;;59.47;39.47;;;;;;;21.48;67.07;99190.41;6843002;29;20205;-77
2021/06/06 12:46:24;;;;;;;65.60;40.50;;;;;;;21.18;66.21;99090.69;6850995;29;20241;-77
2021/06/06 12:49:51;;;;;;;74.80;44.77;;;;;;;21.66;66.06;99128.78;6852594;29;20216;-77
2021/06/06 12:53:27;;;;;;;65.13;42.60;;;;;;;21.64;65.13;99128.19;6852436;29;20209;-77
2021/06/06 12:56:51;;;;;;;56.87;38.13;;;;;;;21.55;65.18;99124.34;6851658;29;20238;-78
2021/06/06 13:00:21;;;;;;;72.43;40.97;;;;;;;21.85;66.09;99169.25;6850996;29;20252;-78
2021/06/06 13:03:45;;;;;;;58.03;40.27;;;;;;;21.77;66.49;99171.69;6851528;29;20286;-78
2021/06/06 13:07:24;;;;;;;68.17;42.87;;;;;;;21.91;65.57;99143.47;6851622;29;20242;-78
2021/06/06 13:10:55;;;;;;;63.87;42.73;;;;;;;21.44;66.35;99107.00;6850202;29;20198;-77
2021/06/06 13:14:35;;;;;;;60.27;41.63;;;;;;;22.24;65.84;99184.19;6840834;29;20701;-77
2021/06/06 13:17:56;;;;;;;63.80;41.60;;;;;;;22.16;64.97;99127.03;6850732;29;20200;-77
2021/06/06 13:21:25;;;;;;;65.53;43.03;;;;;;;22.00;64.88;99121.75;6831233;29;20211;-77
2021/06/06 13:24:47;;;;;;;74.63;47.63;;;;;;;22.11;64.98;99120.69;6848860;29;20239;-78
2021/06/06 13:28:22;;;;;;;70.63;49.57;;;;;;;21.87;64.81;99112.13;6848444;29;20221;-76
2021/06/06 13:31:58;;;;;;;65.67;43.87;;;;;;;22.00;65.20;99117.09;6847156;29;20201;-76
2021/06/06 13:35:19;;;;;;;62.53;43.50;;;;;;;22.12;65.49;99114.94;6846642;29;20236;-77
2021/06/06 13:38:42;;;;;;;83.13;47.20;;;;;;;22.22;65.88;99175.41;6848545;29;20204;-79
2021/06/06 13:42:09;;;;;;;69.67;45.33;;;;;;;21.75;66.86;99111.53;6850684;29;20218;-83
2021/06/06 13:45:32;;;;;;;65.10;42.73;;;;;;;22.17;65.39;99152.56;6852265;28;20601;-83
2021/06/06 13:49:09;;;;;;;61.23;43.37;;;;;;;22.44;64.80;99180.69;6848071;29;20209;-83
2021/06/06 13:52:30;;;;;;;63.13;42.47;;;;;;;22.15;65.49;99158.34;6846066;28;20233;-82
2021/06/06 13:55:52;;;;;;;68.07;44.50;;;;;;;22.60;65.33;99194.16;6848609;28;20222;-83
2021/06/06 13:59:14;;;;;;;61.57;43.33;;;;;;;22.60;65.15;99185.13;6846336;29;20206;-85
2021/06/06 14:02:37;;;;;;;66.70;44.63;;;;;;;22.46;65.27;99173.81;6849663;29;20288;-82
2021/06/06 14:06:00;;;;;;;65.43;42.87;;;;;;;22.63;64.97;99188.13;6849314;29;20205;-85
2021/06/06 14:09:23;;;;;;;67.97;45.20;;;;;;;22.20;65.14;99128.13;6848983;29;20201;-85
2021/06/06 14:12:44;;;;;;;67.00;45.53;;;;;;;22.40;65.34;99179.53;6831825;29;20692;-85
2021/06/06 14:16:07;;;;;;;64.77;42.67;;;;;;;22.18;64.81;99138.56;6848973;29;20237;-84
2021/06/06 14:19:35;;;;;;;63.03;44.80;;;;;;;21.46;65.38;99058.16;6848328;29;20198;-85
2021/06/06 14:22:56;;;;;;;62.13;42.87;;;;;;;21.60;65.34;99085.94;6849806;29;20584;-85
2021/06/06 14:26:19;;;;;;;59.37;42.37;;;;;;;21.23;65.74;99018.56;6850208;29;20224;-87
2021/06/06 14:29:41;;;;;;;62.07;40.93;;;;;;;21.85;65.24;99103.34;6850660;29;20212;-85
2021/06/06 14:33:04;;;;;;;60.00;45.23;;;;;;;21.91;64.27;99058.34;6832155;28;20237;-87
2021/06/06 14:36:31;;;;;;;60.57;42.70;;;;;;;22.71;64.39;99200.53;6851984;29;20289;-87
2021/06/06 14:39:52;;;;;;;53.90;39.70;;;;;;;21.83;64.74;99080.81;6852264;29;20218;-87
2021/06/06 14:43:15;;;;;;;57.50;41.23;;;;;;;22.17;65.30;99147.06;6849620;29;20206;-88
2021/06/06 14:46:37;;;;;;;57.90;43.57;;;;;;;22.26;64.66;99132.56;6845852;29;20296;-86
2021/06/06 14:50:01;;;;;;;61.23;44.47;;;;;;;22.18;64.53;99080.06;6851799;29;20276;-86
2021/06/06 14:53:26;;;;;;;56.63;41.30;;;;;;;22.29;64.51;99117.41;6850428;29;20217;-87
2021/06/06 14:56:49;;;;;;;55.67;41.07;;;;;;;22.45;64.50;99128.22;6848014;28;20207;-86
2021/06/06 15:00:13;;;;;;;74.10;51.90;;;;;;;22.55;64.70;99144.69;6846941;29;20224;-86
2021/06/06 15:03:35;;;;;;;72.13;47.83;;;;;;;22.46;65.19;99176.56;6849591;29;20727;-86
2021/06/06 15:06:57;;;;;;;72.10;53.10;;;;;;;22.38;64.58;99107.56;6850122;29;20214;-85
2021/06/06 15:10:21;;;;;;;75.43;53.80;;;;;;;22.28;64.93;99119.38;6849121;28;20213;-84
2021/06/06 15:13:48;;;;;;;64.20;45.53;;;;;;;22.53;65.05;99149.63;6834113;29;20252;-85
2021/06/06 15:17:09;;;;;;;66.47;44.57;;;;;;;22.60;65.47;99158.44;6851901;29;20257;-85
2021/06/06 15:20:32;;;;;;;65.63;45.57;;;;;;;22.68;64.70;99152.41;6829847;29;20265;-86
2021/06/06 15:23:56;;;;;;;60.23;43.07;;;;;;;22.31;65.21;99118.00;6852840;29;20215;-85
2021/06/06 15:27:18;;;;;;;52.43;41.30;;;;;;;22.43;64.79;99122.13;6842674;29;20217;-85
2021/06/06 15:30:52;;;;;;;64.23;43.97;;;;;;;22.45;64.89;99110.88;6841333;29;20201;-85
2021/06/06 15:34:15;;;;;;;63.33;43.83;;;;;;;22.62;64.94;99159.00;6853034;29;20236;-84
2021/06/06 15:37:39;;;;;;;61.47;44.37;;;;;;;22.43;65.30;99105.66;6853042;29;20199;-85
2021/06/06 15:41:05;;;;;;;69.50;50.53;;;;;;;22.00;64.83;99020.16;6837190;29;20218;-85
2021/06/06 15:44:31;;;;;;;62.00;45.17;;;;;;;22.40;64.83;99072.38;6852368;28;20203;-85
2021/06/06 15:47:54;;;;;;;60.20;45.57;;;;;;;21.96;65.42;99022.63;6856693;29;20214;-85
2021/06/06 15:51:17;;;;;;;60.87;42.50;;;;;;;22.56;64.65;99109.78;6850917;29;20211;-80
2021/06/06 15:54:39;;;;;;;56.43;42.00;;;;;;;22.29;64.80;99033.09;6829986;28;20250;-82
2021/06/06 15:58:01;;;;;;;58.37;42.23;;;;;;;22.63;64.55;99080.94;6848722;28;20684;-81
2021/06/06 16:01:27;;;;;;;53.53;39.70;;;;;;;22.78;64.54;99113.09;6843785;29;20320;-81
2021/06/06 16:04:49;;;;;;;49.00;37.97;;;;;;;22.71;64.58;99091.38;6840618;29;20203;-81
2021/06/06 16:08:11;;;;;;;48.87;37.17;;;;;;;22.69;64.56;99099.06;6855301;29;20213;-81
2021/06/06 16:11:33;;;;;;;47.30;37.17;;;;;;;22.15;64.85;99028.41;6854116;29;20215;-81
2021/06/06 16:14:54;;;;;;;48.87;36.50;;;;;;;22.52;64.28;99054.56;6854174;29;20243;-82
2021/06/06 16:18:17;;;;;;;47.60;36.47;;;;;;;22.88;64.89;99146.06;6837838;29;20210;-82
2021/06/06 16:21:39;;;;;;;46.93;34.87;;;;;;;22.43;64.64;99069.13;6853897;29;20237;-82
2021/06/06 16:25:00;;;;;;;49.77;37.50;;;;;;;22.75;64.49;99080.63;6854405;28;20211;-81
2021/06/06 16:28:22;;;;;;;48.27;36.73;;;;;;;22.32;64.48;99016.06;6853771;29;20207;-82
2021/06/06 16:31:43;;;;;;;51.87;37.73;;;;;;;23.22;64.25;99138.91;6853947;29;20221;-80
2021/06/06 16:35:07;;;;;;;51.63;35.37;;;;;;;22.57;64.18;99035.31;6852991;29;20232;-82
2021/06/06 16:38:29;;;;;;;47.00;37.13;;;;;;;22.02;64.93;98966.59;6854448;29;20248;-82
2021/06/06 16:41:50;;;;;;;48.67;34.97;;;;;;;22.91;64.51;99134.53;6853442;29;20696;-82
2021/06/06 16:45:13;;;;;;;51.77;36.43;;;;;;;22.77;64.61;99092.19;6854551;28;20243;-81
2021/06/06 16:48:35;;;;;;;43.67;34.93;;;;;;;22.44;64.12;99055.13;6853552;29;20224;-81
2021/06/06 16:51:58;;;;;;;44.50;34.67;;;;;;;22.50;64.61;99072.41;6853140;29;20348;-81
2021/06/06 16:55:22;;;;;;;47.30;36.87;;;;;;;22.89;64.33;99076.22;6853242;29;20262;-81
2021/06/06 16:58:44;;;;;;;44.90;34.57;;;;;;;23.11;64.46;99148.25;6834924;29;20220;-82
2021/06/06 17:02:06;;;;;;;48.87;35.80;;;;;;;22.69;65.00;99081.75;6853632;29;20625;-81
2021/06/06 17:05:28;;;;;;;48.23;36.37;;;;;;;23.26;64.49;99135.31;6853383;29;20209;-82
2021/06/06 17:08:51;;;;;;;47.97;36.37;;;;;;;22.98;63.93;99036.88;6853160;29;20297;-81
2021/06/06 17:12:13;;;;;;;43.73;33.97;;;;;;;23.55;63.87;99141.03;6830657;29;20381;-81
2021/06/06 17:15:39;;;;;;;41.20;31.83;;;;;;;23.57;63.24;99125.03;6847688;29;20238;-82
2021/06/06 17:19:00;;;;;;;40.07;31.63;;;;;;;22.89;63.44;99002.00;6844206;29;20239;-81
2021/06/06 17:22:21;;;;;;;38.70;31.93;;;;;;;23.14;62.65;99034.91;6852552;29;20249;-82
2021/06/06 17:25:45;;;;;;;39.27;30.10;;;;;;;23.16;62.49;99068.44;6852316;29;20214;-82
2021/06/06 17:29:08;;;;;;;36.50;29.57;;;;;;;23.23;62.81;99072.59;6853175;29;20223;-82
2021/06/06 17:32:29;;;;;;;36.17;29.17;;;;;;;23.07;62.38;99034.38;6852330;29;20223;-81
2021/06/06 17:35:52;;;;;;;32.73;28.13;;;;;;;22.73;62.47;98994.88;6852336;29;20229;-84
2021/06/06 17:39:14;;;;;;;36.47;30.83;;;;;;;23.67;62.74;99128.56;6852137;29;20622;-82
2021/06/06 17:42:37;;;;;;;41.33;36.70;;;;;;;23.10;62.49;99028.31;6852371;29;20290;-82
2021/06/06 17:46:01;;;;;;;36.80;30.37;;;;;;;22.81;62.31;98991.53;6852528;28;20262;-83
2021/06/06 17:49:23;;;;;;;33.50;28.23;;;;;;;23.64;61.87;99136.56;6852287;29;20316;-82
2021/06/06 17:52:51;;;;;;;36.80;30.33;;;;;;;23.43;62.92;99110.25;6851256;29;20209;-83
2021/06/06 17:56:12;;;;;;;33.70;28.60;;;;;;;23.43;63.14;99135.00;6846178;29;20225;-83
2021/06/06 17:59:35;;;;;;;39.93;29.70;;;;;;;23.22;62.88;99084.72;6850164;29;20241;-83
2021/06/06 18:02:58;;;;;;;38.10;28.73;;;;;;;22.68;63.12;99047.94;6851959;29;20212;-83
2021/06/06 18:06:20;;;;;;;34.77;28.00;;;;;;;23.33;63.07;99141.38;6852832;29;20289;-83
2021/06/06 18:09:41;;;;;;;36.70;30.33;;;;;;;23.08;62.92;99096.53;6826182;28;20586;-84
2021/06/06 18:13:04;;;;;;;38.80;30.67;;;;;;;23.26;63.23;99134.50;6824725;28;20215;-83
2021/06/06 18:16:26;;;;;;;36.37;30.87;;;;;;;22.79;63.31;99068.81;6833483;29;20240;-80
2021/06/06 18:19:49;;;;;;;36.43;28.67;;;;;;;22.30;63.36;99012.75;6848689;28;20210;-83
2021/06/06 18:23:11;;;;;;;33.80;26.37;;;;;;;23.28;63.44;99152.38;6850941;28;20623;-81
2021/06/06 18:26:32;;;;;;;34.00;27.30;;;;;;;22.64;62.85;99062.50;6849206;28;20205;-78
2021/06/06 18:29:53;;;;;;;31.47;26.40;;;;;;;22.47;62.87;99038.06;6827255;28;20206;-79
2021/06/06 18:33:18;;;;;;;27.07;24.13;;;;;;;23.19;62.22;99153.22;6849109;29;20276;-80
2021/06/06 18:36:43;;;;;;;30.27;23.90;;;;;;;23.35;61.99;99136.41;6850606;29;20230;-79
2021/06/06 18:40:06;;;;;;;28.83;25.70;;;;;;;22.57;62.50;99050.97;6846082;28;20213;-80
2021/06/06 18:43:27;;;;;;;26.57;23.43;;;;;;;23.24;62.01;99158.72;6838353;29;20202;-80
2021/06/06 18:46:51;;;;;;;26.80;22.77;;;;;;;23.09;62.24;99166.97;6849330;29;20367;-80
2021/06/06 18:50:21;;;;;;;28.53;24.30;;;;;;;23.06;62.51;99153.78;6847175;29;20218;-78
2021/06/06 18:53:42;;;;;;;27.50;23.43;;;;;;;22.90;62.31;99114.44;6822601;29;20609;-78
2021/06/06 18:57:04;;;;;;;25.50;22.50;;;;;;;22.05;62.76;99011.94;6843909;28;20214;-80
2021/06/06 19:00:30;;;;;;;29.73;23.70;;;;;;;22.98;63.14;99165.31;6850880;29;20212;-80
2021/06/06 19:03:52;;;;;;;27.00;23.60;;;;;;;23.03;62.84;99159.81;6851613;29;20222;-80
2021/06/06 19:07:16;;;;;;;27.27;24.17;;;;;;;22.19;63.25;99063.28;6851344;29;20213;-81
2021/06/06 19:10:39;;;;;;;27.00;23.13;;;;;;;22.80;63.62;99161.22;6850754;29;20234;-81